sensor_id;sensor_type;location;lat;lon;timestamp;P1;durP1;ratioP1;P2;durP2;ratioP2
13432;SDS011;6789;47.678;9.158;2023-01-05T00:04:09;1.40;;;0.93;;
13432;SDS011;6789;47.678;9.158;2023-01-05T00:09:02;1.23;;;0.93;;
13432;SDS011;6789;47.678;9.158;2023-01-05T00:13:55;1.10;;;1.00;;
13432;SDS011;6789;47.678;9.158;2023-01-05T00:19:07;1.30;;;0.97;;
13432;SDS011;6789;47.678;9.158;2023-01-05T00:24:20;0.97;;;0.90;;
13432;SDS011;6789;47.678;9.158;2023-01-05T00:29:12;0.80;;;0.80;;
13432;SDS011;6789;47.678;9.158;2023-01-05T00:34:04;1.10;;;1.00;;
13432;SDS011;6789;47.678;9.158;2023-01-05T00:38:56;1.10;;;1.00;;
13432;SDS011;6789;47.678;9.158;2023-01-05T00:43:47;2.00;;;0.93;;
13432;SDS011;6789;47.678;9.158;2023-01-05T00:48:39;1.20;;;1.00;;
13432;SDS011;6789;47.678;9.158;2023-01-05T00:53:31;1.30;;;1.10;;
13432;SDS011;6789;47.678;9.158;2023-01-05T00:58:23;1.63;;;1.00;;
13432;SDS011;6789;47.678;9.158;2023-01-05T01:03:14;1.30;;;1.00;;
13432;SDS011;6789;47.678;9.158;2023-01-05T01:08:06;2.40;;;1.10;;
13432;SDS011;6789;47.678;9.158;2023-01-05T01:12:58;2.30;;;1.20;;
13432;SDS011;6789;47.678;9.158;2023-01-05T01:17:50;1.53;;;1.20;;
13432;SDS011;6789;47.678;9.158;2023-01-05T01:22:41;2.50;;;0.90;;
13432;SDS011;6789;47.678;9.158;2023-01-05T01:27:33;1.57;;;1.20;;
13432;SDS011;6789;47.678;9.158;2023-01-05T01:32:25;1.30;;;1.10;;
13432;SDS011;6789;47.678;9.158;2023-01-05T01:37:17;1.17;;;1.07;;
13432;SDS011;6789;47.678;9.158;2023-01-05T01:42:11;1.83;;;1.10;;
13432;SDS011;6789;47.678;9.158;2023-01-05T01:47:05;0.80;;;0.80;;
13432;SDS011;6789;47.678;9.158;2023-01-05T01:51:57;4.07;;;1.20;;
13432;SDS011;6789;47.678;9.158;2023-01-05T01:56:51;1.33;;;0.80;;
13432;SDS011;6789;47.678;9.158;2023-01-05T02:01:46;1.47;;;0.80;;
13432;SDS011;6789;47.678;9.158;2023-01-05T02:06:44;1.30;;;0.90;;
13432;SDS011;6789;47.678;9.158;2023-01-05T02:32:56;0.83;;;0.80;;
13432;SDS011;6789;47.678;9.158;2023-01-05T02:43:23;0.90;;;0.80;;
13432;SDS011;6789;47.678;9.158;2023-01-05T02:48:18;0.80;;;0.80;;
13432;SDS011;6789;47.678;9.158;2023-01-05T02:53:21;1.00;;;0.90;;
13432;SDS011;6789;47.678;9.158;2023-01-05T02:58:33;0.73;;;0.70;;
13432;SDS011;6789;47.678;9.158;2023-01-05T03:03:48;1.00;;;0.90;;
13432;SDS011;6789;47.678;9.158;2023-01-05T03:08:50;0.60;;;0.60;;
13432;SDS011;6789;47.678;9.158;2023-01-05T03:14:00;2.17;;;0.57;;
13432;SDS011;6789;47.678;9.158;2023-01-05T03:19:03;0.73;;;0.60;;
13432;SDS011;6789;47.678;9.158;2023-01-05T03:24:21;0.80;;;0.57;;
13432;SDS011;6789;47.678;9.158;2023-01-05T03:29:31;0.77;;;0.67;;
13432;SDS011;6789;47.678;9.158;2023-01-05T03:34:44;2.70;;;0.53;;
13432;SDS011;6789;47.678;9.158;2023-01-05T03:40:01;0.50;;;0.50;;
13432;SDS011;6789;47.678;9.158;2023-01-05T03:45:05;0.83;;;0.80;;
13432;SDS011;6789;47.678;9.158;2023-01-05T03:49:59;1.57;;;0.80;;
13432;SDS011;6789;47.678;9.158;2023-01-05T03:54:51;1.33;;;0.70;;
13432;SDS011;6789;47.678;9.158;2023-01-05T03:59:42;1.87;;;1.00;;
13432;SDS011;6789;47.678;9.158;2023-01-05T04:04:34;0.93;;;0.80;;
13432;SDS011;6789;47.678;9.158;2023-01-05T04:09:26;1.50;;;0.73;;
13432;SDS011;6789;47.678;9.158;2023-01-05T04:14:17;0.70;;;0.70;;
13432;SDS011;6789;47.678;9.158;2023-01-05T04:19:09;0.67;;;0.67;;
13432;SDS011;6789;47.678;9.158;2023-01-05T04:24:01;1.70;;;0.80;;
13432;SDS011;6789;47.678;9.158;2023-01-05T04:28:53;0.73;;;0.60;;
13432;SDS011;6789;47.678;9.158;2023-01-05T04:33:45;0.60;;;0.57;;
13432;SDS011;6789;47.678;9.158;2023-01-05T04:38:36;1.13;;;0.80;;
13432;SDS011;6789;47.678;9.158;2023-01-05T04:43:30;0.67;;;0.67;;
13432;SDS011;6789;47.678;9.158;2023-01-05T04:48:22;1.50;;;0.73;;
13432;SDS011;6789;47.678;9.158;2023-01-05T04:53:14;0.60;;;0.60;;
13432;SDS011;6789;47.678;9.158;2023-01-05T04:58:06;0.40;;;0.40;;
13432;SDS011;6789;47.678;9.158;2023-01-05T05:03:02;0.93;;;0.80;;
13432;SDS011;6789;47.678;9.158;2023-01-05T05:08:08;0.50;;;0.50;;
13432;SDS011;6789;47.678;9.158;2023-01-05T05:13:01;0.47;;;0.40;;
13432;SDS011;6789;47.678;9.158;2023-01-05T05:17:54;0.90;;;0.60;;
13432;SDS011;6789;47.678;9.158;2023-01-05T05:22:47;0.67;;;0.50;;
13432;SDS011;6789;47.678;9.158;2023-01-05T05:27:52;0.40;;;0.40;;
13432;SDS011;6789;47.678;9.158;2023-01-05T05:32:46;0.63;;;0.40;;
13432;SDS011;6789;47.678;9.158;2023-01-05T05:37:39;0.17;;;0.17;;
13432;SDS011;6789;47.678;9.158;2023-01-05T05:42:34;0.63;;;0.50;;
13432;SDS011;6789;47.678;9.158;2023-01-05T05:47:26;0.40;;;0.30;;
13432;SDS011;6789;47.678;9.158;2023-01-05T05:52:25;0.40;;;0.40;;
13432;SDS011;6789;47.678;9.158;2023-01-05T05:57:31;0.37;;;0.37;;
13432;SDS011;6789;47.678;9.158;2023-01-05T06:02:23;0.70;;;0.40;;
13432;SDS011;6789;47.678;9.158;2023-01-05T06:07:16;0.30;;;0.20;;
13432;SDS011;6789;47.678;9.158;2023-01-05T06:12:08;0.30;;;0.30;;
13432;SDS011;6789;47.678;9.158;2023-01-05T06:17:00;0.40;;;0.40;;
13432;SDS011;6789;47.678;9.158;2023-01-05T06:21:59;0.23;;;0.23;;
13432;SDS011;6789;47.678;9.158;2023-01-05T06:26:59;0.67;;;0.40;;
13432;SDS011;6789;47.678;9.158;2023-01-05T06:31:52;0.70;;;0.40;;
13432;SDS011;6789;47.678;9.158;2023-01-05T06:36:58;3.17;;;0.50;;
13432;SDS011;6789;47.678;9.158;2023-01-05T06:42:03;0.40;;;0.40;;
13432;SDS011;6789;47.678;9.158;2023-01-05T06:47:09;0.50;;;0.50;;
13432;SDS011;6789;47.678;9.158;2023-01-05T06:52:08;1.03;;;0.50;;
13432;SDS011;6789;47.678;9.158;2023-01-05T06:57:14;1.53;;;0.70;;
13432;SDS011;6789;47.678;9.158;2023-01-05T07:02:20;0.43;;;0.40;;
13432;SDS011;6789;47.678;9.158;2023-01-05T07:07:16;0.70;;;0.50;;
13432;SDS011;6789;47.678;9.158;2023-01-05T07:12:21;0.57;;;0.50;;
13432;SDS011;6789;47.678;9.158;2023-01-05T07:17:15;0.63;;;0.60;;
13432;SDS011;6789;47.678;9.158;2023-01-05T07:22:09;0.87;;;0.80;;
13432;SDS011;6789;47.678;9.158;2023-01-05T07:27:05;1.60;;;0.63;;
13432;SDS011;6789;47.678;9.158;2023-01-05T07:32:00;1.57;;;0.63;;
13432;SDS011;6789;47.678;9.158;2023-01-05T07:36:56;0.47;;;0.47;;
13432;SDS011;6789;47.678;9.158;2023-01-05T07:42:02;4.93;;;0.70;;
13432;SDS011;6789;47.678;9.158;2023-01-05T07:47:01;0.53;;;0.50;;
13432;SDS011;6789;47.678;9.158;2023-01-05T07:51:54;1.80;;;0.80;;
13432;SDS011;6789;47.678;9.158;2023-01-05T07:56:46;0.90;;;0.73;;
13432;SDS011;6789;47.678;9.158;2023-01-05T08:01:52;1.10;;;1.00;;
13432;SDS011;6789;47.678;9.158;2023-01-05T08:06:45;0.70;;;0.70;;
13432;SDS011;6789;47.678;9.158;2023-01-05T08:11:36;2.30;;;0.87;;
13432;SDS011;6789;47.678;9.158;2023-01-05T08:16:30;1.20;;;0.70;;
13432;SDS011;6789;47.678;9.158;2023-01-05T08:21:37;1.00;;;0.90;;
13432;SDS011;6789;47.678;9.158;2023-01-05T08:26:30;1.50;;;0.63;;
13432;SDS011;6789;47.678;9.158;2023-01-05T08:31:37;0.90;;;0.70;;
13432;SDS011;6789;47.678;9.158;2023-01-05T08:36:32;0.80;;;0.70;;
13432;SDS011;6789;47.678;9.158;2023-01-05T08:41:27;0.93;;;0.40;;
13432;SDS011;6789;47.678;9.158;2023-01-05T08:46:39;1.30;;;0.60;;
13432;SDS011;6789;47.678;9.158;2023-01-05T08:51:45;0.70;;;0.50;;
13432;SDS011;6789;47.678;9.158;2023-01-05T08:56:51;0.77;;;0.70;;
13432;SDS011;6789;47.678;9.158;2023-01-05T09:01:57;0.70;;;0.50;;
13432;SDS011;6789;47.678;9.158;2023-01-05T09:06:51;0.60;;;0.57;;
13432;SDS011;6789;47.678;9.158;2023-01-05T09:11:46;1.00;;;0.60;;
13432;SDS011;6789;47.678;9.158;2023-01-05T09:16:38;0.47;;;0.40;;
13432;SDS011;6789;47.678;9.158;2023-01-05T09:21:57;0.40;;;0.40;;
13432;SDS011;6789;47.678;9.158;2023-01-05T09:27:04;0.93;;;0.60;;
13432;SDS011;6789;47.678;9.158;2023-01-05T09:32:11;0.40;;;0.40;;
13432;SDS011;6789;47.678;9.158;2023-01-05T09:37:08;1.60;;;0.73;;
13432;SDS011;6789;47.678;9.158;2023-01-05T09:42:05;0.57;;;0.40;;
13432;SDS011;6789;47.678;9.158;2023-01-05T09:47:27;1.10;;;0.67;;
13432;SDS011;6789;47.678;9.158;2023-01-05T09:52:42;0.40;;;0.30;;
13432;SDS011;6789;47.678;9.158;2023-01-05T09:57:49;0.60;;;0.33;;
13432;SDS011;6789;47.678;9.158;2023-01-05T10:03:23;1.10;;;0.80;;
13432;SDS011;6789;47.678;9.158;2023-01-05T10:08:38;1.23;;;0.50;;
13432;SDS011;6789;47.678;9.158;2023-01-05T10:13:58;0.30;;;0.30;;
13432;SDS011;6789;47.678;9.158;2023-01-05T10:19:13;0.60;;;0.40;;
13432;SDS011;6789;47.678;9.158;2023-01-05T10:30:25;1.03;;;0.93;;
13432;SDS011;6789;47.678;9.158;2023-01-05T10:41:44;0.57;;;0.30;;
13432;SDS011;6789;47.678;9.158;2023-01-05T10:47:10;0.90;;;0.40;;
13432;SDS011;6789;47.678;9.158;2023-01-05T10:52:19;0.57;;;0.50;;
13432;SDS011;6789;47.678;9.158;2023-01-05T10:57:32;0.53;;;0.33;;
13432;SDS011;6789;47.678;9.158;2023-01-05T11:02:48;0.87;;;0.70;;
13432;SDS011;6789;47.678;9.158;2023-01-05T11:07:58;0.20;;;0.10;;
13432;SDS011;6789;47.678;9.158;2023-01-05T11:24:00;0.70;;;0.20;;
13432;SDS011;6789;47.678;9.158;2023-01-05T11:55:36;0.30;;;0.23;;
13432;SDS011;6789;47.678;9.158;2023-01-05T12:00:39;0.63;;;0.50;;
13432;SDS011;6789;47.678;9.158;2023-01-05T12:06:30;0.20;;;0.20;;
13432;SDS011;6789;47.678;9.158;2023-01-05T12:12:16;0.10;;;0.10;;
13432;SDS011;6789;47.678;9.158;2023-01-05T12:24:05;4.17;;;0.60;;
13432;SDS011;6789;47.678;9.158;2023-01-05T12:47:25;0.73;;;0.30;;
13432;SDS011;6789;47.678;9.158;2023-01-05T12:52:53;0.40;;;0.40;;
13432;SDS011;6789;47.678;9.158;2023-01-05T12:58:31;0.37;;;0.33;;
13432;SDS011;6789;47.678;9.158;2023-01-05T13:03:34;0.90;;;0.60;;
13432;SDS011;6789;47.678;9.158;2023-01-05T13:09:03;0.70;;;0.53;;
13432;SDS011;6789;47.678;9.158;2023-01-05T13:14:26;0.40;;;0.27;;
13432;SDS011;6789;47.678;9.158;2023-01-05T13:19:40;1.07;;;0.57;;
13432;SDS011;6789;47.678;9.158;2023-01-05T13:24:58;0.28;;;0.28;;
13432;SDS011;6789;47.678;9.158;2023-01-05T13:30:21;0.33;;;0.13;;
13432;SDS011;6789;47.678;9.158;2023-01-05T13:41:26;0.63;;;0.10;;
13432;SDS011;6789;47.678;9.158;2023-01-05T13:46:42;1.00;;;0.40;;
13432;SDS011;6789;47.678;9.158;2023-01-05T13:52:16;0.77;;;0.40;;
13432;SDS011;6789;47.678;9.158;2023-01-05T13:57:35;0.23;;;0.20;;
13432;SDS011;6789;47.678;9.158;2023-01-05T14:03:06;0.22;;;0.20;;
13432;SDS011;6789;47.678;9.158;2023-01-05T14:08:56;2.30;;;0.50;;
13432;SDS011;6789;47.678;9.158;2023-01-05T14:14:27;1.47;;;0.80;;
13432;SDS011;6789;47.678;9.158;2023-01-05T14:19:53;0.68;;;0.50;;
13432;SDS011;6789;47.678;9.158;2023-01-05T14:30:43;0.40;;;0.40;;
13432;SDS011;6789;47.678;9.158;2023-01-05T14:35:48;0.40;;;0.30;;
13432;SDS011;6789;47.678;9.158;2023-01-05T14:40:57;0.30;;;0.30;;
13432;SDS011;6789;47.678;9.158;2023-01-05T14:51:31;0.73;;;0.40;;
13432;SDS011;6789;47.678;9.158;2023-01-05T15:02:41;0.37;;;0.30;;
13432;SDS011;6789;47.678;9.158;2023-01-05T15:14:35;0.67;;;0.47;;
13432;SDS011;6789;47.678;9.158;2023-01-05T15:25:45;0.50;;;0.50;;
13432;SDS011;6789;47.678;9.158;2023-01-05T15:31:21;0.97;;;0.90;;
13432;SDS011;6789;47.678;9.158;2023-01-05T15:37:01;2.03;;;1.37;;
13432;SDS011;6789;47.678;9.158;2023-01-05T15:42:42;1.37;;;1.13;;
13432;SDS011;6789;47.678;9.158;2023-01-05T15:47:53;2.53;;;1.33;;
13432;SDS011;6789;47.678;9.158;2023-01-05T15:53:21;1.60;;;0.80;;
13432;SDS011;6789;47.678;9.158;2023-01-05T15:58:40;1.40;;;0.87;;
13432;SDS011;6789;47.678;9.158;2023-01-05T16:03:50;0.70;;;0.60;;
13432;SDS011;6789;47.678;9.158;2023-01-05T16:08:58;0.77;;;0.60;;
13432;SDS011;6789;47.678;9.158;2023-01-05T16:14:31;2.37;;;0.93;;
13432;SDS011;6789;47.678;9.158;2023-01-05T16:19:58;0.70;;;0.50;;
13432;SDS011;6789;47.678;9.158;2023-01-05T16:35:45;1.50;;;1.40;;
13432;SDS011;6789;47.678;9.158;2023-01-05T16:51:14;0.87;;;0.73;;
13432;SDS011;6789;47.678;9.158;2023-01-05T17:01:37;1.17;;;0.83;;
13432;SDS011;6789;47.678;9.158;2023-01-05T17:06:49;1.27;;;1.17;;
13432;SDS011;6789;47.678;9.158;2023-01-05T17:11:58;1.60;;;0.87;;
13432;SDS011;6789;47.678;9.158;2023-01-05T17:16:52;1.27;;;1.10;;
13432;SDS011;6789;47.678;9.158;2023-01-05T17:21:59;1.37;;;0.70;;
13432;SDS011;6789;47.678;9.158;2023-01-05T17:27:08;0.50;;;0.30;;
13432;SDS011;6789;47.678;9.158;2023-01-05T17:32:15;1.07;;;0.80;;
13432;SDS011;6789;47.678;9.158;2023-01-05T17:37:22;1.00;;;0.90;;
13432;SDS011;6789;47.678;9.158;2023-01-05T17:42:59;1.50;;;1.20;;
13432;SDS011;6789;47.678;9.158;2023-01-05T17:48:05;2.13;;;1.30;;
13432;SDS011;6789;47.678;9.158;2023-01-05T17:52:58;5.70;;;4.17;;
13432;SDS011;6789;47.678;9.158;2023-01-05T17:58:34;3.13;;;2.50;;
13432;SDS011;6789;47.678;9.158;2023-01-05T18:03:40;2.73;;;2.30;;
13432;SDS011;6789;47.678;9.158;2023-01-05T18:08:34;1.50;;;1.40;;
13432;SDS011;6789;47.678;9.158;2023-01-05T18:13:36;3.67;;;2.00;;
13432;SDS011;6789;47.678;9.158;2023-01-05T18:18:42;2.63;;;1.50;;
13432;SDS011;6789;47.678;9.158;2023-01-05T18:23:51;1.50;;;1.40;;
13432;SDS011;6789;47.678;9.158;2023-01-05T18:28:57;1.63;;;1.50;;
13432;SDS011;6789;47.678;9.158;2023-01-05T18:34:03;2.37;;;1.40;;
13432;SDS011;6789;47.678;9.158;2023-01-05T18:39:09;1.60;;;1.30;;
13432;SDS011;6789;47.678;9.158;2023-01-05T18:44:32;2.30;;;1.50;;
13432;SDS011;6789;47.678;9.158;2023-01-05T18:49:38;3.93;;;2.57;;
13432;SDS011;6789;47.678;9.158;2023-01-05T18:54:44;2.97;;;2.60;;
13432;SDS011;6789;47.678;9.158;2023-01-05T18:59:52;3.30;;;2.60;;
13432;SDS011;6789;47.678;9.158;2023-01-05T19:04:58;4.43;;;2.60;;
13432;SDS011;6789;47.678;9.158;2023-01-05T19:10:04;2.53;;;1.90;;
13432;SDS011;6789;47.678;9.158;2023-01-05T19:14:58;3.10;;;1.97;;
13432;SDS011;6789;47.678;9.158;2023-01-05T19:19:51;3.23;;;2.30;;
13432;SDS011;6789;47.678;9.158;2023-01-05T19:24:50;3.30;;;2.67;;
13432;SDS011;6789;47.678;9.158;2023-01-05T19:29:55;2.97;;;2.23;;
13432;SDS011;6789;47.678;9.158;2023-01-05T19:35:04;4.53;;;2.50;;
13432;SDS011;6789;47.678;9.158;2023-01-05T19:40:11;4.27;;;2.40;;
13432;SDS011;6789;47.678;9.158;2023-01-05T19:45:05;2.83;;;2.00;;
13432;SDS011;6789;47.678;9.158;2023-01-05T19:50:03;3.13;;;2.83;;
13432;SDS011;6789;47.678;9.158;2023-01-05T19:54:59;4.83;;;3.40;;
13432;SDS011;6789;47.678;9.158;2023-01-05T20:00:05;4.93;;;3.60;;
13432;SDS011;6789;47.678;9.158;2023-01-05T20:05:00;5.23;;;4.23;;
13432;SDS011;6789;47.678;9.158;2023-01-05T20:10:06;4.87;;;3.27;;
13432;SDS011;6789;47.678;9.158;2023-01-05T20:15:01;3.73;;;3.10;;
13432;SDS011;6789;47.678;9.158;2023-01-05T20:20:07;5.07;;;3.40;;
13432;SDS011;6789;47.678;9.158;2023-01-05T20:25:13;12.47;;;9.30;;
13432;SDS011;6789;47.678;9.158;2023-01-05T20:30:19;9.57;;;6.33;;
13432;SDS011;6789;47.678;9.158;2023-01-05T20:35:27;10.33;;;6.37;;
13432;SDS011;6789;47.678;9.158;2023-01-05T20:40:33;7.27;;;5.00;;
13432;SDS011;6789;47.678;9.158;2023-01-05T20:45:39;8.83;;;6.27;;
13432;SDS011;6789;47.678;9.158;2023-01-05T20:50:44;7.17;;;4.53;;
13432;SDS011;6789;47.678;9.158;2023-01-05T20:55:45;6.93;;;3.83;;
13432;SDS011;6789;47.678;9.158;2023-01-05T21:00:55;8.03;;;3.90;;
13432;SDS011;6789;47.678;9.158;2023-01-05T21:06:03;8.17;;;5.13;;
13432;SDS011;6789;47.678;9.158;2023-01-05T21:11:12;7.47;;;4.03;;
13432;SDS011;6789;47.678;9.158;2023-01-05T21:16:06;5.00;;;3.90;;
13432;SDS011;6789;47.678;9.158;2023-01-05T21:21:03;6.77;;;4.00;;
13432;SDS011;6789;47.678;9.158;2023-01-05T21:26:13;9.10;;;6.10;;
13432;SDS011;6789;47.678;9.158;2023-01-05T21:31:09;6.80;;;4.27;;
13432;SDS011;6789;47.678;9.158;2023-01-05T21:36:06;5.63;;;4.50;;
13432;SDS011;6789;47.678;9.158;2023-01-05T21:41:19;8.33;;;4.70;;
13432;SDS011;6789;47.678;9.158;2023-01-05T21:46:46;7.20;;;4.90;;
13432;SDS011;6789;47.678;9.158;2023-01-05T21:51:40;7.43;;;4.70;;
13432;SDS011;6789;47.678;9.158;2023-01-05T21:57:05;11.67;;;6.70;;
13432;SDS011;6789;47.678;9.158;2023-01-05T22:02:12;9.37;;;6.10;;
13432;SDS011;6789;47.678;9.158;2023-01-05T22:07:19;8.77;;;5.80;;
13432;SDS011;6789;47.678;9.158;2023-01-05T22:12:26;11.77;;;8.70;;
13432;SDS011;6789;47.678;9.158;2023-01-05T22:17:21;8.97;;;5.47;;
13432;SDS011;6789;47.678;9.158;2023-01-05T22:22:13;9.87;;;6.40;;
13432;SDS011;6789;47.678;9.158;2023-01-05T22:27:19;11.20;;;6.00;;
13432;SDS011;6789;47.678;9.158;2023-01-05T22:32:25;8.13;;;5.33;;
13432;SDS011;6789;47.678;9.158;2023-01-05T22:37:31;7.03;;;5.57;;
13432;SDS011;6789;47.678;9.158;2023-01-05T22:42:40;8.97;;;4.80;;
13432;SDS011;6789;47.678;9.158;2023-01-05T22:47:46;8.47;;;5.70;;
13432;SDS011;6789;47.678;9.158;2023-01-05T22:52:39;7.87;;;5.33;;
13432;SDS011;6789;47.678;9.158;2023-01-05T22:57:44;7.93;;;4.80;;
13432;SDS011;6789;47.678;9.158;2023-01-05T23:02:37;7.93;;;5.23;;
13432;SDS011;6789;47.678;9.158;2023-01-05T23:07:43;6.93;;;4.97;;
13432;SDS011;6789;47.678;9.158;2023-01-05T23:12:50;7.00;;;5.03;;
13432;SDS011;6789;47.678;9.158;2023-01-05T23:17:42;9.27;;;5.70;;
13432;SDS011;6789;47.678;9.158;2023-01-05T23:22:48;8.00;;;5.40;;
13432;SDS011;6789;47.678;9.158;2023-01-05T23:27:54;10.37;;;6.77;;
13432;SDS011;6789;47.678;9.158;2023-01-05T23:33:00;9.23;;;6.17;;
13432;SDS011;6789;47.678;9.158;2023-01-05T23:38:07;10.37;;;6.53;;
13432;SDS011;6789;47.678;9.158;2023-01-05T23:43:17;9.30;;;6.77;;
13432;SDS011;6789;47.678;9.158;2023-01-05T23:48:28;8.80;;;6.40;;
13432;SDS011;6789;47.678;9.158;2023-01-05T23:53:26;9.87;;;6.40;;
13432;SDS011;6789;47.678;9.158;2023-01-05T23:58:26;8.50;;;5.80;;
